createdAt,value
2019-03-10T00:00:32.394Z,69.27
2019-03-10T00:01:32.390Z,69.37
2019-03-10T00:02:32.389Z,69.47
2019-03-10T00:03:32.355Z,68.93
2019-03-10T00:04:32.349Z,68.96
2019-03-10T00:05:32.336Z,69.34
2019-03-10T00:06:32.338Z,68.73
2019-03-10T00:07:32.335Z,68.76
2019-03-10T00:08:32.305Z,69.27
2019-03-10T00:09:32.316Z,68.52
2019-03-10T00:10:32.284Z,68.65
2019-03-10T00:11:32.272Z,68.86
2019-03-10T00:12:32.291Z,68.86
2019-03-10T00:13:32.251Z,68.73
2019-03-10T00:14:32.240Z,68.52
2019-03-10T00:15:32.230Z,68.62
2019-03-10T00:16:32.218Z,68.35
2019-03-10T00:17:32.232Z,68.11
2019-03-10T00:18:32.198Z,68.21
2019-03-10T00:19:32.198Z,67.60
2019-03-10T00:20:32.175Z,68.32
2019-03-10T00:21:32.164Z,68.41
2019-03-10T00:22:32.188Z,68.62
2019-03-10T00:23:32.142Z,68.83
2019-03-10T00:24:32.133Z,68.21
2019-03-10T00:25:32.159Z,68.32
2019-03-10T00:26:32.110Z,68.32
2019-03-10T00:27:32.100Z,68.35
2019-03-10T00:28:32.116Z,67.90
2019-03-10T00:29:32.078Z,67.60
2019-03-10T00:30:32.111Z,67.49
2019-03-10T00:31:32.064Z,67.70
2019-03-10T00:32:32.046Z,68.01
2019-03-10T00:33:32.054Z,68.01
2019-03-10T00:34:32.025Z,67.60
2019-03-10T00:35:32.017Z,67.60
2019-03-10T00:36:32.009Z,67.90
2019-03-10T00:37:32.013Z,67.80
2019-03-10T00:38:32.014Z,67.70
2019-03-10T00:39:31.970Z,67.80
2019-03-10T00:40:39.002Z,67.83
2019-03-10T00:41:31.949Z,67.70
2019-03-10T00:42:32.158Z,68.11
2019-03-10T00:43:31.947Z,67.32
2019-03-10T00:44:31.919Z,68.24
2019-03-10T00:45:31.917Z,68.01
2019-03-10T00:46:31.895Z,68.14
2019-03-10T00:47:31.907Z,67.90
2019-03-10T00:48:31.890Z,67.70
2019-03-10T00:49:31.868Z,67.90
2019-03-10T00:50:31.858Z,67.80
2019-03-10T00:51:34.163Z,67.70
2019-03-10T00:52:31.829Z,67.90
2019-03-10T00:53:31.841Z,67.70
2019-03-10T00:54:31.807Z,67.80
2019-03-10T00:55:31.796Z,67.43
2019-03-10T00:56:31.796Z,67.40
2019-03-10T00:57:31.839Z,67.80
2019-03-10T00:58:31.786Z,68.01
2019-03-10T00:59:31.754Z,67.94
2019-03-10T01:00:31.743Z,67.94
2019-03-10T01:01:31.731Z,67.80
2019-03-10T01:02:31.727Z,67.80
2019-03-10T01:03:31.738Z,67.83
2019-03-10T01:04:31.704Z,67.63
2019-03-10T01:05:31.703Z,67.63
2019-03-10T01:06:31.685Z,67.80
2019-03-10T01:07:31.667Z,67.94
2019-03-10T01:08:31.689Z,68.01
2019-03-10T01:09:31.710Z,68.01
2019-03-10T01:10:31.650Z,67.70
2019-03-10T01:11:31.626Z,67.63
2019-03-10T01:12:31.615Z,67.63
2019-03-10T01:13:31.628Z,67.63
2019-03-10T01:14:31.596Z,67.90
2019-03-10T01:15:31.591Z,67.73
2019-03-10T01:16:31.575Z,67.94
2019-03-10T01:17:31.560Z,68.01
2019-03-10T01:18:31.580Z,67.60
2019-03-10T01:19:31.540Z,67.90
2019-03-10T01:20:31.529Z,67.49
2019-03-10T01:21:31.515Z,67.73
2019-03-10T01:22:31.507Z,67.73
2019-03-10T01:23:31.522Z,68.01
2019-03-10T01:24:31.489Z,67.94
2019-03-10T01:25:31.476Z,67.63
2019-03-10T01:26:31.464Z,67.73
2019-03-10T01:27:31.450Z,67.73
2019-03-10T01:28:31.465Z,68.04
2019-03-10T01:29:31.430Z,67.52
2019-03-10T01:30:31.420Z,67.73
2019-03-10T01:31:31.443Z,68.04
2019-03-10T01:32:31.408Z,68.04
2019-03-10T01:33:31.406Z,67.52
2019-03-10T01:34:31.377Z,67.73
2019-03-10T01:35:31.369Z,67.52
2019-03-10T01:36:31.357Z,68.04
2019-03-10T01:37:31.413Z,67.94
2019-03-10T01:38:31.352Z,67.94
2019-03-10T01:39:31.319Z,67.94
2019-03-10T01:40:31.312Z,67.73
2019-03-10T01:41:31.308Z,68.14
2019-03-10T01:42:31.287Z,68.04
2019-03-10T01:43:31.298Z,68.14
2019-03-10T01:44:31.267Z,67.94
2019-03-10T01:45:31.272Z,67.52
2019-03-10T01:46:31.244Z,67.32
2019-03-10T01:47:31.239Z,67.32
2019-03-10T01:48:31.246Z,67.43
2019-03-10T01:49:31.216Z,67.32
2019-03-10T01:50:31.206Z,67.32
2019-03-10T01:51:31.201Z,67.32
2019-03-10T01:52:31.188Z,67.94
2019-03-10T01:53:31.195Z,68.14
2019-03-10T01:54:31.160Z,67.63
2019-03-10T01:55:31.149Z,67.63
2019-03-10T01:56:31.148Z,67.52
2019-03-10T01:57:31.127Z,67.73
2019-03-10T01:58:31.141Z,67.73
2019-03-10T01:59:31.108Z,68.14
2019-03-10T02:00:31.110Z,67.97
2019-03-10T02:01:31.152Z,67.94
2019-03-10T02:02:31.070Z,68.04
2019-03-10T02:03:31.086Z,67.94
2019-03-10T02:04:31.144Z,68.04
2019-03-10T02:05:31.038Z,67.94
2019-03-10T02:06:31.037Z,68.24
2019-03-10T02:07:31.020Z,67.63
2019-03-10T02:08:31.005Z,67.63
2019-03-10T02:09:31.019Z,67.63
2019-03-10T02:10:31.019Z,67.63
2019-03-10T02:11:30.977Z,67.52
2019-03-10T02:12:30.967Z,67.94
2019-03-10T02:13:30.962Z,67.83
2019-03-10T02:14:30.963Z,68.86
2019-03-10T02:15:30.936Z,69.20
2019-03-10T02:16:30.918Z,68.17
2019-03-10T02:17:30.971Z,68.89
2019-03-10T02:18:30.898Z,68.59
2019-03-10T02:19:30.912Z,68.07
2019-03-10T02:20:30.888Z,67.66
2019-03-10T02:21:30.863Z,67.66
2019-03-10T02:22:30.853Z,67.86
2019-03-10T02:23:30.847Z,67.97
2019-03-10T02:24:30.864Z,68.38
2019-03-10T02:25:30.821Z,67.97
2019-03-10T02:26:30.809Z,67.76
2019-03-10T02:27:30.803Z,67.73
2019-03-10T02:28:30.788Z,67.86
2019-03-10T02:29:30.799Z,67.97
2019-03-10T02:30:30.852Z,67.97
2019-03-10T02:31:30.756Z,67.76
2019-03-10T02:32:30.759Z,67.86
2019-03-10T02:33:30.741Z,67.86
2019-03-10T02:34:30.744Z,67.86
2019-03-10T02:35:30.737Z,67.97
2019-03-10T02:36:30.710Z,68.17
2019-03-10T02:37:30.706Z,68.59
2019-03-10T02:38:30.692Z,68.38
2019-03-10T02:39:30.692Z,68.17
2019-03-10T02:40:30.658Z,68.59
2019-03-10T02:41:30.648Z,67.76
2019-03-10T02:42:30.643Z,67.66
2019-03-10T02:43:30.638Z,67.76
2019-03-10T02:44:30.654Z,67.97
2019-03-10T02:45:30.717Z,67.86
2019-03-10T02:46:30.591Z,67.76
2019-03-10T02:47:30.582Z,67.56
2019-03-10T02:48:30.574Z,68.27
2019-03-10T02:49:30.588Z,67.76
2019-03-10T02:50:30.557Z,67.76
2019-03-10T02:51:30.539Z,67.66
2019-03-10T02:52:30.533Z,67.66
2019-03-10T02:53:30.586Z,67.59
2019-03-10T02:54:30.545Z,68.62
2019-03-10T02:55:30.498Z,67.69
2019-03-10T02:56:30.489Z,68.41
2019-03-10T02:57:30.476Z,67.90
2019-03-10T02:58:30.462Z,67.79
2019-03-10T02:59:30.473Z,67.90
2019-03-10T03:00:30.444Z,68.92
2019-03-10T03:01:30.431Z,68.41
2019-03-10T03:02:30.422Z,68.62
2019-03-10T03:03:30.412Z,68.51
2019-03-10T03:04:30.416Z,68.65
2019-03-10T03:05:30.387Z,68.30
2019-03-10T03:06:30.377Z,68.54
2019-03-10T03:07:30.364Z,68.65
2019-03-10T03:08:30.367Z,68.54
2019-03-10T03:09:30.368Z,68.85
2019-03-10T03:10:30.332Z,68.51
2019-03-10T03:11:30.322Z,68.92
2019-03-10T03:12:30.311Z,68.65
2019-03-10T03:13:30.315Z,68.03
2019-03-10T03:14:30.308Z,68.21
2019-03-10T03:15:30.289Z,67.72
2019-03-10T03:16:30.286Z,68.10
2019-03-10T03:17:30.266Z,67.90
2019-03-10T03:18:30.247Z,66.77
2019-03-10T03:19:30.257Z,66.80
2019-03-10T03:20:30.225Z,66.67
2019-03-10T03:21:42.436Z,67.49
2019-03-10T03:22:31.231Z,68.10
2019-03-10T03:23:30.201Z,66.70
2019-03-10T03:24:30.202Z,67.18
2019-03-10T03:25:30.180Z,67.08
2019-03-10T03:26:30.164Z,66.05
2019-03-10T03:27:30.148Z,66.46
2019-03-10T03:28:30.138Z,67.38
2019-03-10T03:29:30.148Z,67.41
2019-03-10T03:30:30.127Z,67.52
2019-03-10T03:31:30.115Z,67.28
2019-03-10T03:32:30.119Z,68.13
2019-03-10T03:33:30.111Z,67.72
2019-03-10T03:34:30.095Z,69.16
2019-03-10T03:35:30.063Z,69.98
2019-03-10T03:36:30.056Z,70.29
2019-03-10T03:37:30.047Z,71.01
2019-03-10T03:38:30.031Z,71.55
2019-03-10T03:39:30.058Z,71.45
2019-03-10T03:40:30.017Z,71.14
2019-03-10T03:41:29.996Z,71.14
2019-03-10T03:42:29.995Z,71.14
2019-03-10T03:43:30.005Z,71.55
2019-03-10T03:44:30.000Z,72.06
2019-03-10T03:45:29.970Z,72.38
2019-03-10T03:46:29.965Z,72.38
2019-03-10T03:47:29.933Z,73.50
2019-03-10T03:48:29.934Z,73.10
2019-03-10T03:49:29.918Z,74.43
2019-03-10T03:50:29.938Z,74.74
2019-03-10T03:51:29.890Z,74.94
2019-03-10T03:52:29.910Z,74.84
2019-03-10T03:53:29.870Z,76.07
2019-03-10T03:54:29.864Z,77.30
2019-03-10T03:55:29.879Z,78.12
2019-03-10T03:56:29.840Z,76.10
2019-03-10T03:57:29.826Z,75.90
2019-03-10T03:58:29.821Z,75.97
2019-03-10T03:59:29.804Z,77.34
2019-03-10T04:00:29.814Z,76.82
2019-03-10T04:01:29.793Z,76.93
2019-03-10T04:02:29.790Z,78.47
2019-03-10T04:03:29.775Z,78.12
2019-03-10T04:04:29.750Z,78.16
2019-03-10T04:05:29.760Z,78.47
2019-03-10T04:06:29.735Z,77.85
2019-03-10T04:07:29.722Z,77.85
2019-03-10T04:08:29.707Z,77.75
2019-03-10T04:09:29.702Z,76.51
2019-03-10T04:10:29.709Z,77.44
2019-03-10T04:11:29.678Z,78.36
2019-03-10T04:12:29.734Z,78.57
2019-03-10T04:13:29.672Z,78.50
2019-03-10T04:14:29.643Z,78.36
2019-03-10T04:15:29.650Z,79.12
2019-03-10T04:16:29.621Z,79.12
2019-03-10T04:17:29.615Z,78.98
2019-03-10T04:18:29.600Z,78.98
2019-03-10T04:19:29.601Z,79.19
2019-03-10T04:20:29.609Z,79.43
2019-03-10T04:21:29.571Z,79.53
2019-03-10T04:22:29.558Z,78.92
2019-03-10T04:23:29.548Z,79.43
2019-03-10T04:24:29.536Z,79.84
2019-03-10T04:25:29.567Z,80.19
2019-03-10T04:26:29.522Z,79.98
2019-03-10T04:27:29.515Z,79.77
2019-03-10T04:28:29.494Z,80.70
2019-03-10T04:29:29.486Z,80.49
2019-03-10T04:30:29.491Z,81.11
2019-03-10T04:31:29.469Z,80.49
2019-03-10T04:32:29.485Z,80.84
2019-03-10T04:33:29.444Z,81.05
2019-03-10T04:34:29.444Z,81.46
2019-03-10T04:35:29.457Z,81.73
2019-03-10T04:36:29.410Z,81.97
2019-03-10T04:37:29.402Z,82.18
2019-03-10T04:38:29.391Z,81.46
2019-03-10T04:39:29.383Z,81.67
2019-03-10T04:40:29.388Z,81.56
2019-03-10T04:41:29.356Z,81.67
2019-03-10T04:42:29.347Z,82.18
2019-03-10T04:43:29.335Z,81.56
2019-03-10T04:44:29.325Z,82.21
2019-03-10T04:45:29.344Z,82.39
2019-03-10T04:46:29.304Z,81.56
2019-03-10T04:47:29.293Z,81.35
2019-03-10T04:48:29.285Z,80.77
2019-03-10T04:49:29.282Z,80.63
2019-03-10T04:50:29.287Z,80.84
2019-03-10T04:51:29.252Z,81.46
2019-03-10T04:52:29.246Z,80.84
2019-03-10T04:53:29.232Z,81.39
2019-03-10T04:54:29.223Z,80.98
2019-03-10T04:55:29.231Z,80.88
2019-03-10T04:56:29.201Z,81.19
2019-03-10T04:57:29.191Z,81.70
2019-03-10T04:58:29.184Z,81.49
2019-03-10T04:59:29.172Z,82.32
2019-03-10T05:00:29.177Z,82.25
2019-03-10T05:01:29.151Z,82.56
2019-03-10T05:02:29.139Z,81.95
2019-03-10T05:03:29.125Z,82.67
2019-03-10T05:04:31.451Z,83.28
2019-03-10T05:05:29.131Z,82.77
2019-03-10T05:06:29.096Z,82.46
2019-03-10T05:07:29.086Z,82.67
2019-03-10T05:08:29.081Z,82.87
2019-03-10T05:09:29.065Z,83.80
2019-03-10T05:10:29.074Z,83.65
2019-03-10T05:11:29.048Z,83.97
2019-03-10T05:12:29.050Z,83.76
2019-03-10T05:13:29.024Z,83.45
2019-03-10T05:14:29.018Z,82.63
2019-03-10T05:15:29.022Z,82.28
2019-03-10T05:16:28.991Z,82.32
2019-03-10T05:17:28.982Z,82.83
2019-03-10T05:18:28.972Z,83.55
2019-03-10T05:19:28.963Z,83.55
2019-03-10T05:20:28.969Z,83.35
2019-03-10T05:21:28.940Z,83.86
2019-03-10T05:22:28.930Z,83.76
2019-03-10T05:23:28.919Z,84.52
2019-03-10T05:24:28.908Z,84.62
2019-03-10T05:25:28.924Z,85.96
2019-03-10T05:26:28.888Z,85.75
2019-03-10T05:27:28.878Z,85.96
2019-03-10T05:28:28.867Z,86.61
2019-03-10T05:29:28.858Z,86.52
2019-03-10T05:30:28.872Z,86.58
2019-03-10T05:31:28.843Z,86.31
2019-03-10T05:32:28.828Z,86.72
2019-03-10T05:33:28.814Z,86.82
2019-03-10T05:34:28.826Z,87.13
2019-03-10T05:35:28.794Z,87.44
2019-03-10T05:36:28.803Z,87.44
2019-03-10T05:37:28.779Z,87.75
2019-03-10T05:38:28.778Z,87.03
2019-03-10T05:39:28.759Z,87.69
2019-03-10T05:40:28.743Z,87.75
2019-03-10T05:41:28.755Z,87.48
2019-03-10T05:42:28.722Z,87.69
2019-03-10T05:43:28.713Z,87.59
2019-03-10T05:44:28.730Z,87.17
2019-03-10T05:45:28.691Z,87.17
2019-03-10T05:46:28.709Z,87.79
2019-03-10T05:47:28.671Z,87.54
2019-03-10T05:48:28.659Z,87.69
2019-03-10T05:49:28.649Z,88.10
2019-03-10T05:50:28.655Z,88.62
2019-03-10T05:51:28.650Z,87.79
2019-03-10T05:52:28.618Z,87.90
2019-03-10T05:53:28.614Z,87.90
2019-03-10T05:54:28.598Z,88.04
2019-03-10T05:55:28.588Z,88.35
2019-03-10T05:56:28.597Z,88.24
2019-03-10T05:57:28.576Z,88.14
2019-03-10T05:58:28.555Z,88.35
2019-03-10T05:59:28.545Z,88.86
2019-03-10T06:00:28.536Z,88.35
2019-03-10T06:01:28.545Z,88.56
2019-03-10T06:02:28.514Z,88.14
2019-03-10T06:03:28.509Z,88.76
2019-03-10T06:04:28.513Z,88.14
2019-03-10T06:05:28.483Z,88.56
2019-03-10T06:06:28.496Z,88.35
2019-03-10T06:07:28.475Z,88.65
2019-03-10T06:08:28.453Z,89.17
2019-03-10T06:09:28.441Z,89.28
2019-03-10T06:10:28.453Z,89.07
2019-03-10T06:11:28.444Z,89.42
2019-03-10T06:12:28.411Z,88.86
2019-03-10T06:13:28.400Z,89.79
2019-03-10T06:14:28.393Z,89.69
2019-03-10T06:15:28.402Z,89.69
2019-03-10T06:16:28.390Z,89.52
2019-03-10T06:17:28.368Z,89.48
2019-03-10T06:18:28.349Z,89.79
2019-03-10T06:19:28.342Z,89.48
2019-03-10T06:20:28.340Z,89.69
2019-03-10T06:21:28.346Z,89.69
2019-03-10T06:22:28.309Z,89.79
2019-03-10T06:23:28.298Z,89.28
2019-03-10T06:24:28.290Z,89.38
2019-03-10T06:25:28.275Z,89.28
2019-03-10T06:26:28.288Z,89.03
2019-03-10T06:27:28.257Z,89.13
2019-03-10T06:28:28.244Z,89.07
2019-03-10T06:29:28.230Z,89.07
2019-03-10T06:30:28.318Z,89.28
2019-03-10T06:31:28.234Z,89.28
2019-03-10T06:32:28.210Z,88.86
2019-03-10T06:33:28.191Z,89.58
2019-03-10T06:34:28.195Z,89.28
2019-03-10T06:35:28.172Z,89.38
2019-03-10T06:36:28.177Z,89.48
2019-03-10T06:37:28.149Z,89.48
2019-03-10T06:38:28.145Z,89.38
2019-03-10T06:39:28.138Z,88.86
2019-03-10T06:40:32.012Z,89.28
2019-03-10T06:41:28.132Z,88.96
2019-03-10T06:42:28.097Z,89.38
2019-03-10T06:43:28.091Z,89.22
2019-03-10T06:44:28.076Z,89.38
2019-03-10T06:45:28.067Z,89.11
2019-03-10T06:46:28.083Z,89.83
2019-03-10T06:47:28.044Z,89.28
2019-03-10T06:48:28.034Z,89.62
2019-03-10T06:49:28.025Z,89.42
2019-03-10T06:50:28.015Z,89.32
2019-03-10T06:51:28.026Z,89.42
2019-03-10T06:52:28.000Z,89.94
2019-03-10T06:53:27.984Z,90.25
2019-03-10T06:54:27.970Z,90.45
2019-03-10T06:55:27.962Z,90.55
2019-03-10T06:56:28.024Z,90.66
2019-03-10T06:57:27.939Z,90.35
2019-03-10T06:58:27.931Z,90.45
2019-03-10T06:59:27.919Z,90.25
2019-03-10T07:00:27.906Z,90.45
2019-03-10T07:01:27.918Z,90.45
2019-03-10T07:02:27.885Z,90.31
2019-03-10T07:03:27.882Z,90.10
2019-03-10T07:04:27.880Z,90.31
2019-03-10T07:05:27.855Z,90.72
2019-03-10T07:06:27.876Z,89.69
2019-03-10T07:07:27.833Z,90.82
2019-03-10T07:08:27.837Z,90.20
2019-03-10T07:09:27.815Z,90.16
2019-03-10T07:10:27.808Z,90.57
2019-03-10T07:11:27.833Z,89.89
2019-03-10T07:12:27.783Z,90.31
2019-03-10T07:13:27.770Z,90.00
2019-03-10T07:14:27.763Z,90.20
2019-03-10T07:15:27.763Z,90.00
2019-03-10T07:16:27.783Z,90.31
2019-03-10T07:17:27.733Z,90.31
2019-03-10T07:18:27.729Z,90.10
2019-03-10T07:19:27.713Z,90.41
2019-03-10T07:20:27.696Z,90.10
2019-03-10T07:21:27.693Z,90.20
2019-03-10T07:22:27.708Z,90.37
2019-03-10T07:23:27.669Z,90.16
2019-03-10T07:24:27.657Z,90.26
2019-03-10T07:25:27.648Z,90.16
2019-03-10T07:26:27.645Z,90.16
2019-03-10T07:27:27.643Z,90.16
2019-03-10T07:28:27.614Z,90.16
2019-03-10T07:29:27.604Z,90.26
2019-03-10T07:30:27.594Z,90.26
2019-03-10T07:31:27.600Z,90.06
2019-03-10T07:32:27.594Z,90.37
2019-03-10T07:33:27.564Z,90.43
2019-03-10T07:34:27.560Z,90.43
2019-03-10T07:35:27.555Z,90.37
2019-03-10T07:36:27.534Z,90.22
2019-03-10T07:37:27.543Z,90.33
2019-03-10T07:38:27.512Z,90.12
2019-03-10T07:39:27.527Z,90.18
2019-03-10T07:40:27.496Z,89.87
2019-03-10T07:41:27.485Z,90.18
2019-03-10T07:42:27.500Z,90.39
2019-03-10T07:43:27.456Z,90.08
2019-03-10T07:44:27.448Z,89.87
2019-03-10T07:45:27.465Z,89.77
2019-03-10T07:46:27.430Z,89.77
2019-03-10T07:47:27.441Z,90.28
2019-03-10T07:48:27.410Z,90.39
2019-03-10T07:49:27.410Z,90.39
2019-03-10T07:50:27.399Z,90.18
2019-03-10T07:51:27.376Z,89.46
2019-03-10T07:52:27.384Z,89.87
2019-03-10T07:53:27.361Z,89.67
2019-03-10T07:54:27.350Z,89.87
2019-03-10T07:55:27.339Z,90.28
2019-03-10T07:56:27.324Z,90.28
2019-03-10T07:57:27.355Z,90.39
2019-03-10T07:58:27.311Z,90.24
2019-03-10T07:59:27.291Z,90.39
2019-03-10T08:00:27.286Z,90.14
2019-03-10T08:01:27.275Z,90.03
2019-03-10T08:02:27.278Z,90.03
2019-03-10T08:03:27.250Z,90.30
2019-03-10T08:04:27.238Z,90.00
2019-03-10T08:05:27.239Z,89.58
2019-03-10T08:06:27.217Z,89.17
2019-03-10T08:07:27.231Z,89.28
2019-03-10T08:08:27.200Z,89.07
2019-03-10T08:09:27.188Z,88.92
2019-03-10T08:10:27.176Z,89.03
2019-03-10T08:11:27.163Z,88.62
2019-03-10T08:12:27.178Z,88.84
2019-03-10T08:13:27.147Z,88.37
2019-03-10T08:14:27.141Z,88.17
2019-03-10T08:15:27.129Z,87.96
2019-03-10T08:16:27.112Z,87.96
2019-03-10T08:17:27.127Z,88.33
2019-03-10T08:18:27.091Z,87.88
2019-03-10T08:19:27.082Z,87.73
2019-03-10T08:20:27.071Z,87.79
2019-03-10T08:21:27.067Z,87.04
2019-03-10T08:22:27.070Z,87.14
2019-03-10T08:23:27.045Z,87.34
2019-03-10T08:24:27.046Z,86.63
2019-03-10T08:25:27.016Z,85.60
2019-03-10T08:26:27.020Z,85.71
2019-03-10T08:27:27.024Z,85.74
2019-03-10T08:28:26.997Z,85.71
2019-03-10T08:29:26.979Z,86.71
2019-03-10T08:30:26.972Z,83.19
2019-03-10T08:31:26.952Z,83.25
2019-03-10T08:32:26.966Z,82.09
2019-03-10T08:33:26.947Z,80.83
2019-03-10T08:34:26.928Z,80.79
2019-03-10T08:35:26.914Z,80.62
2019-03-10T08:36:26.899Z,81.51
2019-03-10T08:37:26.908Z,83.09
2019-03-10T08:38:26.882Z,84.31
2019-03-10T08:39:26.865Z,84.52
2019-03-10T08:40:26.856Z,85.30
2019-03-10T08:41:26.852Z,85.14
2019-03-10T08:42:26.873Z,85.14
2019-03-10T08:43:26.822Z,85.34
2019-03-10T08:44:26.809Z,85.14
2019-03-10T08:45:26.812Z,85.14
2019-03-10T08:46:26.792Z,84.93
2019-03-10T08:47:26.803Z,85.20
2019-03-10T08:48:26.768Z,85.10
2019-03-10T08:49:26.768Z,85.20
2019-03-10T08:50:26.750Z,84.55
2019-03-10T08:51:26.739Z,83.73
2019-03-10T08:52:26.752Z,83.83
2019-03-10T08:53:26.712Z,84.03
2019-03-10T08:54:26.703Z,84.00
2019-03-10T08:55:26.709Z,83.24
2019-03-10T08:56:26.679Z,82.93
2019-03-10T08:57:26.817Z,83.09
2019-03-10T08:58:26.671Z,77.43
2019-03-10T08:59:26.654Z,73.80
2019-03-10T09:00:26.649Z,70.52
2019-03-10T09:01:26.627Z,70.39
2019-03-10T09:02:26.672Z,72.11
2019-03-10T09:03:26.655Z,72.85
2019-03-10T09:04:26.595Z,73.80
2019-03-10T09:05:26.595Z,74.24
2019-03-10T09:06:26.574Z,74.96
2019-03-10T09:07:26.560Z,74.65
2019-03-10T09:08:26.569Z,75.26
2019-03-10T09:09:26.541Z,75.26
2019-03-10T09:10:26.531Z,75.70
2019-03-10T09:11:26.518Z,75.70
2019-03-10T09:12:26.512Z,75.95
2019-03-10T09:13:26.512Z,75.95
2019-03-10T09:14:26.480Z,75.95
2019-03-10T09:15:26.467Z,76.25
2019-03-10T09:16:26.465Z,76.15
2019-03-10T09:17:26.448Z,76.08
2019-03-10T09:18:26.476Z,75.88
2019-03-10T09:19:26.424Z,75.47
2019-03-10T09:20:26.414Z,75.98
2019-03-10T09:21:26.401Z,75.88
2019-03-10T09:22:26.398Z,76.08
2019-03-10T09:23:26.403Z,75.67
2019-03-10T09:24:26.366Z,76.53
2019-03-10T09:25:26.358Z,77.40
2019-03-10T09:26:26.353Z,76.90
2019-03-10T09:27:28.368Z,75.67
2019-03-10T09:28:26.351Z,75.88
2019-03-10T09:29:26.311Z,75.67
2019-03-10T09:30:26.300Z,76.59
2019-03-10T09:31:26.312Z,76.49
2019-03-10T09:32:26.281Z,76.28
2019-03-10T09:33:26.294Z,76.39
2019-03-10T09:34:26.261Z,77.51
2019-03-10T09:35:26.247Z,77.40
2019-03-10T09:36:26.233Z,76.22
2019-03-10T09:37:26.233Z,76.62
2019-03-10T09:38:26.238Z,77.85
2019-03-10T09:39:26.198Z,77.64
2019-03-10T09:40:26.195Z,77.03
2019-03-10T09:41:26.180Z,77.64
2019-03-10T09:42:26.167Z,78.42
2019-03-10T09:43:26.174Z,78.16
2019-03-10T09:44:26.152Z,77.61
2019-03-10T09:45:26.142Z,77.44
2019-03-10T09:46:26.124Z,77.85
2019-03-10T09:47:26.113Z,77.40
2019-03-10T09:48:26.115Z,77.30
2019-03-10T09:49:26.088Z,76.25
2019-03-10T09:50:26.080Z,75.78
2019-03-10T09:51:26.066Z,76.18
2019-03-10T09:52:26.054Z,75.88
2019-03-10T09:53:26.061Z,76.49
2019-03-10T09:54:26.033Z,76.69
2019-03-10T09:55:26.018Z,77.10
2019-03-10T09:56:26.017Z,77.40
2019-03-10T09:57:25.998Z,77.51
2019-03-10T09:58:26.006Z,77.61
2019-03-10T09:59:25.978Z,76.69
2019-03-10T10:00:25.967Z,76.39
2019-03-10T10:01:25.952Z,75.98
2019-03-10T10:02:25.950Z,75.47
2019-03-10T10:03:25.952Z,75.37
2019-03-10T10:04:25.918Z,75.67
2019-03-10T10:05:25.910Z,74.01
2019-03-10T10:06:25.903Z,73.06
2019-03-10T10:07:25.896Z,72.34
2019-03-10T10:08:25.895Z,70.89
2019-03-10T10:09:25.870Z,69.98
2019-03-10T10:10:25.854Z,69.71
2019-03-10T10:11:25.856Z,68.12
2019-03-10T10:12:25.829Z,66.41
2019-03-10T10:13:25.837Z,63.48
2019-03-10T10:14:25.812Z,63.41
2019-03-10T10:15:25.803Z,60.96
2019-03-10T10:16:25.786Z,55.23
2019-03-10T10:17:25.776Z,51.79
2019-03-10T10:18:25.784Z,52.19
2019-03-10T10:19:25.754Z,48.90
2019-03-10T10:20:26.835Z,50.63
2019-03-10T10:21:25.737Z,49.41
2019-03-10T10:22:25.722Z,48.49
2019-03-10T10:23:25.730Z,49.07
2019-03-10T10:24:25.697Z,48.82
2019-03-10T10:25:25.687Z,47.10
2019-03-10T10:26:25.687Z,48.96
2019-03-10T10:27:25.673Z,53.02
2019-03-10T10:28:25.681Z,55.23
2019-03-10T10:29:25.646Z,57.43
2019-03-10T10:30:25.633Z,58.29
2019-03-10T10:31:25.622Z,59.78
2019-03-10T10:32:25.614Z,61.76
2019-03-10T10:33:25.629Z,61.01
2019-03-10T10:34:25.592Z,61.78
2019-03-10T10:35:25.595Z,61.80
2019-03-10T10:36:25.569Z,62.85
2019-03-10T10:37:25.560Z,64.00
2019-03-10T10:38:25.614Z,65.31
2019-03-10T10:39:25.549Z,65.95
2019-03-10T10:40:25.523Z,65.55
2019-03-10T10:41:25.515Z,66.19
2019-03-10T10:42:25.512Z,66.08
2019-03-10T10:43:25.491Z,67.24
2019-03-10T10:44:25.508Z,67.88
2019-03-10T10:45:25.474Z,68.21
2019-03-10T10:46:25.469Z,68.92
2019-03-10T10:47:25.464Z,69.33
2019-03-10T10:48:25.438Z,69.26
2019-03-10T10:49:25.452Z,69.36
2019-03-10T10:50:25.431Z,70.92
2019-03-10T10:51:25.405Z,70.45
2019-03-10T10:52:25.404Z,71.36
2019-03-10T10:53:25.383Z,71.80
2019-03-10T10:54:25.420Z,72.82
2019-03-10T10:55:25.381Z,72.52
2019-03-10T10:56:25.356Z,73.13
2019-03-10T10:57:25.359Z,73.30
2019-03-10T10:58:25.347Z,73.87
2019-03-10T10:59:25.337Z,74.18
2019-03-10T11:00:25.311Z,73.16
2019-03-10T11:01:25.296Z,71.77
2019-03-10T11:02:25.284Z,70.45
2019-03-10T11:03:25.275Z,68.42
2019-03-10T11:04:25.315Z,65.06
2019-03-10T11:05:25.252Z,59.84
2019-03-10T11:06:25.249Z,56.46
2019-03-10T11:07:25.231Z,51.19
2019-03-10T11:08:25.220Z,50.92
2019-03-10T11:09:25.227Z,50.44
2019-03-10T11:10:25.198Z,47.45
2019-03-10T11:11:25.185Z,45.66
2019-03-10T11:12:25.184Z,44.91
2019-03-10T11:13:25.166Z,44.53
2019-03-10T11:14:25.175Z,48.08
2019-03-10T11:15:25.146Z,47.15
2019-03-10T11:16:25.132Z,44.27
2019-03-10T11:17:25.120Z,42.39
2019-03-10T11:18:25.111Z,41.66
2019-03-10T11:19:25.130Z,40.46
2019-03-10T11:20:25.091Z,43.59
2019-03-10T11:21:25.079Z,43.69
2019-03-10T11:22:25.077Z,44.87
2019-03-10T11:23:25.058Z,46.33
2019-03-10T11:24:25.065Z,48.60
2019-03-10T11:25:25.043Z,45.94
2019-03-10T11:26:25.031Z,45.66
2019-03-10T11:27:25.024Z,45.64
2019-03-10T11:28:25.015Z,45.96
2019-03-10T11:29:25.011Z,45.36
2019-03-10T11:30:24.984Z,46.56
2019-03-10T11:31:24.992Z,45.98
2019-03-10T11:32:24.968Z,45.27
2019-03-10T11:33:27.440Z,43.13
2019-03-10T11:34:24.959Z,42.73
2019-03-10T11:35:24.925Z,41.36
2019-03-10T11:36:24.917Z,41.93
2019-03-10T11:37:24.914Z,41.19
2019-03-10T11:38:24.911Z,41.00
2019-03-10T11:39:24.902Z,43.24
2019-03-10T11:40:24.872Z,47.30
2019-03-10T11:41:33.452Z,49.73
2019-03-10T11:42:25.853Z,51.00
2019-03-10T11:43:24.852Z,52.04
2019-03-10T11:44:24.848Z,53.58
2019-03-10T11:45:24.818Z,54.43
2019-03-10T11:46:24.808Z,55.29
2019-03-10T11:47:24.798Z,56.66
2019-03-10T11:48:24.816Z,57.80
2019-03-10T11:49:24.801Z,59.88
2019-03-10T11:50:24.808Z,61.71
2019-03-10T11:51:24.755Z,61.60
2019-03-10T11:52:24.744Z,61.76
2019-03-10T11:53:25.723Z,62.60
2019-03-10T11:54:24.744Z,62.63
2019-03-10T11:55:24.819Z,65.30
2019-03-10T11:56:24.714Z,64.59
2019-03-10T11:57:24.688Z,63.71
2019-03-10T11:58:24.694Z,63.30
2019-03-10T11:59:24.690Z,62.18
2019-03-10T12:00:24.658Z,61.78
2019-03-10T12:01:24.653Z,61.27
2019-03-10T12:02:24.634Z,60.66
2019-03-10T12:03:24.648Z,59.92
2019-03-10T12:04:24.647Z,59.46
2019-03-10T12:05:24.612Z,57.53
2019-03-10T12:06:24.593Z,57.64
2019-03-10T12:07:24.605Z,58.24
2019-03-10T12:08:24.579Z,58.62
2019-03-10T12:09:24.583Z,58.11
2019-03-10T12:10:24.550Z,58.31
2019-03-10T12:11:24.543Z,57.84
2019-03-10T12:12:24.528Z,55.22
2019-03-10T12:13:24.535Z,57.07
2019-03-10T12:14:24.527Z,56.90
2019-03-10T12:15:24.496Z,55.55
2019-03-10T12:16:24.485Z,55.47
2019-03-10T12:17:24.474Z,57.12
2019-03-10T12:18:24.468Z,57.23
2019-03-10T12:19:24.501Z,57.73
2019-03-10T12:20:24.440Z,56.82
2019-03-10T12:21:24.430Z,57.46
2019-03-10T12:22:24.421Z,56.98
2019-03-10T12:23:24.411Z,57.61
2019-03-10T12:24:24.399Z,58.33
2019-03-10T12:25:24.439Z,58.27
2019-03-10T12:26:24.387Z,57.46
2019-03-10T12:27:24.362Z,57.92
2019-03-10T12:28:24.357Z,58.09
2019-03-10T12:29:24.342Z,58.94
2019-03-10T12:30:24.353Z,59.03
2019-03-10T12:31:24.322Z,59.24
2019-03-10T12:32:24.312Z,59.37
2019-03-10T12:33:24.301Z,59.88
2019-03-10T12:34:24.300Z,59.77
2019-03-10T12:35:33.925Z,59.60
2019-03-10T12:36:25.317Z,60.89
2019-03-10T12:37:24.273Z,60.92
2019-03-10T12:38:24.249Z,60.92
2019-03-10T12:39:24.232Z,61.02
2019-03-10T12:40:24.243Z,61.22
2019-03-10T12:41:24.210Z,61.46
2019-03-10T12:42:24.211Z,60.85
2019-03-10T12:43:24.191Z,61.56
2019-03-10T12:44:24.188Z,61.56
2019-03-10T12:45:24.194Z,61.25
2019-03-10T12:46:24.155Z,60.85
2019-03-10T12:47:24.146Z,61.36
2019-03-10T12:48:24.134Z,61.29
2019-03-10T12:49:24.125Z,61.90
2019-03-10T12:50:24.151Z,61.97
2019-03-10T12:51:24.103Z,61.87
2019-03-10T12:52:24.093Z,61.36